Jesup, GA

6:17 PM EDT on September 21, 2014 (GMT -0400)
Wayne Terrace | Change Station
CLOSE
Current Station
Personal Weather Station
Location: Jesup, GA
Elevation: 131 ft
Nearby Weather Stations

Elev 131 ft 31.61 °N, 81.92 °W | Updated 1 minute ago

Clear
Clear
87.6 °F
Feels Like 87 °F
N
1.0
Wind Variable Wind from SW
Gusts 9.0 mph

Today
High -- | Low -- °F
--% Chance of Precip.
Yesterday
High -- | Low -- °F
Precip. -- in
7:15 AM 7:25 PM
Waning Crescent, 5% visible
Pressure 29.94 in
Visibility 10.0 miles
Clouds Clear
Heat Index 87 °F
Dew Point 59 °F
Humidity 38%
Rainfall 0.00 in
Snow Depth Not available.
UV 1 out of 12
Pollen 8.10 out of 12
Air Quality Not available.
Flu Activity Not available.
METAR KJES 212155Z AUTO 28005KT 10SM CLR 32/16 A2994 RMK AO2

More Conditions Fewer Conditions

Pressure 29.94 in
Visibility 10.0 miles
Clouds Clear
Heat Index 87 °F
Dew Point 59 °F
Humidity 38%
Rainfall 0.00 in
Snow Depth Not available.
UV 1 out of 12
Pollen 8.10 out of 12
Air Quality Not available.
Flu Activity Not available.
METAR KJES 212155Z AUTO 28005KT 10SM CLR 32/16 A2994 RMK AO2

More Conditions Fewer Conditions

10-Day Weather Forecast

Almanac

Astronomy

Sep. 21, 2014 Rise Set
Actual Time 7:15 AM EDT 7:25 PM EDT
Civil Twilight 6:50 AM EDT 7:49 PM EDT
Nautical Twilight 6:22 AM EDT 8:18 PM EDT
Astronomical Twilight 5:53 AM EDT 8:46 PM EDT
Moon 4:54 AM EDT 5:55 PM EDT
Length of Visible Light 12h 58m
Length of Day
12h 10m
Tomorrow will be 1m 55s shorter.
Waning Crescent, 5% of the Moon is Illuminated
Today
Waning Crescent
Sep 24
New
Oct 1
First Quarter
Oct 8
Full
Oct 15
Last Quarter

Today's Extremes

State Highs State Lows

Community

WunderPhotos

Upload Photos

1,755,269 photos uploaded!

WunderBlogs® & News

Nearby

Snow Depth

Station Depth Elevation
No new snow has been reported.

Earthquake Activity

City Distance Mag. Time & Date
New Ellenton, South Carolina 127 miles 2.6 4:38 PM EDT
2014-09-19
Minimum magnitude displayed is 2.5.

Coastal Water Temperatures

Place Temperature
No Stations Reporting

Nearby Weather Stations